createdAt,value
2018-10-17T00:00:16.104Z,87.30
2018-10-17T00:02:45.955Z,87.40
2018-10-17T00:05:14.738Z,86.90
2018-10-17T00:07:43.482Z,87.10
2018-10-17T00:10:12.008Z,87.20
2018-10-17T00:15:14.606Z,86.90
2018-10-17T00:17:44.253Z,87.30
2018-10-17T00:20:12.916Z,86.30
2018-10-17T00:22:41.593Z,86.10
2018-10-17T00:25:11.324Z,85.90
2018-10-17T00:27:40.557Z,85.90
2018-10-17T00:30:13.106Z,85.80
2018-10-17T00:32:45.801Z,85.70
2018-10-17T00:35:16.752Z,85.80
2018-10-17T00:37:50.270Z,85.90
2018-10-17T00:43:02.217Z,85.90
2018-10-17T00:45:31.175Z,86.00
2018-10-17T00:48:01.711Z,86.70
2018-10-17T00:50:37.582Z,85.80
2018-10-17T00:53:07.312Z,85.70
2018-10-17T00:55:38.138Z,85.90
2018-10-17T00:58:07.901Z,85.80
2018-10-17T01:00:37.088Z,85.60
2018-10-17T01:03:05.878Z,85.50
2018-10-17T01:05:37.655Z,85.80
2018-10-17T01:08:06.764Z,85.80
2018-10-17T01:10:37.591Z,85.60
2018-10-17T01:13:06.462Z,85.50
2018-10-17T01:15:34.946Z,85.50
2018-10-17T01:18:03.699Z,85.70
2018-10-17T01:20:32.898Z,86.00
2018-10-17T01:23:01.436Z,86.10
2018-10-17T01:25:29.738Z,86.40
2018-10-17T01:27:58.494Z,86.20
2018-10-17T01:30:28.674Z,86.30
2018-10-17T01:32:57.583Z,86.30
2018-10-17T01:35:26.401Z,86.40
2018-10-17T01:37:55.955Z,86.60
2018-10-17T01:40:24.681Z,86.90
2018-10-17T01:42:53.302Z,87.40
2018-10-17T01:45:22.673Z,86.80
2018-10-17T01:47:51.193Z,87.00
2018-10-17T01:50:19.877Z,87.10
2018-10-17T01:52:48.387Z,87.30
2018-10-17T01:55:17.170Z,87.60
2018-10-17T01:57:45.819Z,87.30
2018-10-17T02:00:13.762Z,86.80
2018-10-17T02:05:15.826Z,86.70
2018-10-17T02:07:44.449Z,86.70
2018-10-17T02:10:12.892Z,86.40
2018-10-17T02:12:41.393Z,86.40
2018-10-17T02:15:09.425Z,86.40
2018-10-17T02:17:43.641Z,86.20
2018-10-17T02:20:11.433Z,86.30
2018-10-17T02:22:39.520Z,85.80
2018-10-17T02:25:07.979Z,85.80
2018-10-17T02:27:36.206Z,85.80
2018-10-17T02:30:04.304Z,85.90
2018-10-17T02:32:32.082Z,86.20
2018-10-17T02:35:05.747Z,86.10
2018-10-17T02:37:34.004Z,86.20
2018-10-17T02:40:03.574Z,86.30
2018-10-17T02:42:31.589Z,86.20
2018-10-17T02:45:01.026Z,86.30
2018-10-17T02:47:29.387Z,85.80
2018-10-17T02:49:58.157Z,85.70
2018-10-17T02:52:26.736Z,85.70
2018-10-17T02:54:55.308Z,85.70
2018-10-17T02:57:23.101Z,85.70
2018-10-17T02:59:50.819Z,85.30
2018-10-17T03:02:18.659Z,85.20
2018-10-17T03:04:46.703Z,85.00
2018-10-17T03:07:16.394Z,85.70
2018-10-17T03:09:44.867Z,86.20
2018-10-17T03:12:13.990Z,87.00
2018-10-17T03:14:42.716Z,87.60
2018-10-17T03:17:11.250Z,87.70
2018-10-17T03:19:39.982Z,87.90
2018-10-17T03:22:08.439Z,88.00
2018-10-17T03:24:37.066Z,88.40
2018-10-17T03:27:05.710Z,88.00
2018-10-17T03:29:34.465Z,87.80
2018-10-17T03:32:02.584Z,87.70
2018-10-17T03:34:30.667Z,87.30
2018-10-17T03:36:59.811Z,87.30
2018-10-17T03:39:28.422Z,87.20
2018-10-17T03:41:56.924Z,86.60
2018-10-17T03:44:25.817Z,86.50
2018-10-17T03:46:54.554Z,86.90
2018-10-17T03:49:23.380Z,87.00
2018-10-17T03:51:51.862Z,86.90
2018-10-17T03:54:20.606Z,87.00
2018-10-17T03:56:48.389Z,86.70
2018-10-17T03:59:16.324Z,86.80
2018-10-17T04:01:46.149Z,86.70
2018-10-17T04:04:15.045Z,86.80
2018-10-17T04:06:42.981Z,86.60
2018-10-17T04:09:10.874Z,86.50
2018-10-17T04:11:38.871Z,86.40
2018-10-17T04:14:06.839Z,86.20
2018-10-17T04:16:34.995Z,85.90
2018-10-17T04:19:03.621Z,85.80
2018-10-17T04:21:31.972Z,85.90
2018-10-17T04:23:59.764Z,86.30
2018-10-17T04:26:28.170Z,87.00
2018-10-17T04:28:56.501Z,87.20
2018-10-17T04:31:24.263Z,87.80
2018-10-17T04:33:52.113Z,89.20
2018-10-17T04:36:19.946Z,89.50
2018-10-17T04:41:28.667Z,89.90
2018-10-17T04:43:56.356Z,89.00
2018-10-17T04:46:24.197Z,89.10
2018-10-17T04:48:52.064Z,88.80
2018-10-17T04:51:19.761Z,88.70
2018-10-17T04:53:47.388Z,88.50
2018-10-17T04:56:15.004Z,88.70
2018-10-17T04:58:42.633Z,89.00
2018-10-17T05:01:10.667Z,88.80
2018-10-17T05:03:38.542Z,88.80
2018-10-17T05:06:06.321Z,88.70
2018-10-17T05:08:33.924Z,88.70
2018-10-17T05:11:01.613Z,88.90
2018-10-17T05:13:29.251Z,88.70
2018-10-17T05:15:56.951Z,88.70
2018-10-17T05:18:25.633Z,88.50
2018-10-17T05:20:53.876Z,88.60
2018-10-17T05:23:21.914Z,88.30
2018-10-17T05:25:54.833Z,89.20
2018-10-17T05:28:23.135Z,88.40
2018-10-17T05:30:51.352Z,88.60
2018-10-17T05:33:19.338Z,88.80
2018-10-17T05:35:47.065Z,89.00
2018-10-17T05:38:15.645Z,89.30
2018-10-17T05:40:44.004Z,89.30
2018-10-17T05:43:12.118Z,89.90
2018-10-17T05:45:40.125Z,90.20
2018-10-17T05:48:07.921Z,90.30
2018-10-17T05:50:36.042Z,90.20
2018-10-17T05:53:04.049Z,90.00
2018-10-17T05:55:31.821Z,89.70
2018-10-17T05:57:59.561Z,89.90
2018-10-17T06:00:27.316Z,89.70
2018-10-17T06:02:55.114Z,90.00
2018-10-17T06:05:22.829Z,90.00
2018-10-17T06:07:50.779Z,90.10
2018-10-17T06:10:18.742Z,90.00
2018-10-17T06:12:46.747Z,90.00
2018-10-17T06:15:14.430Z,90.00
2018-10-17T06:17:42.452Z,90.10
2018-10-17T06:20:12.775Z,90.10
2018-10-17T06:22:41.146Z,90.00
2018-10-17T06:25:10.559Z,89.90
2018-10-17T06:27:38.949Z,89.50
2018-10-17T06:30:09.024Z,89.00
2018-10-17T06:32:37.186Z,90.00
2018-10-17T06:35:06.154Z,89.00
2018-10-17T06:37:34.082Z,88.90
2018-10-17T06:40:01.975Z,88.80
2018-10-17T06:42:30.333Z,88.80
2018-10-17T06:44:58.109Z,88.90
2018-10-17T06:47:25.950Z,87.40
2018-10-17T06:49:53.938Z,87.30
2018-10-17T06:52:22.075Z,87.00
2018-10-17T06:54:50.306Z,86.70
2018-10-17T06:57:18.506Z,86.80
2018-10-17T06:59:46.248Z,87.00
2018-10-17T07:02:13.973Z,86.60
2018-10-17T07:04:41.602Z,86.70
2018-10-17T07:07:09.397Z,87.30
2018-10-17T07:09:37.381Z,88.00
2018-10-17T07:12:05.575Z,87.90
2018-10-17T07:14:33.790Z,87.00
2018-10-17T07:17:01.893Z,86.20
2018-10-17T07:19:29.786Z,85.50
2018-10-17T07:21:58.143Z,84.90
2018-10-17T07:24:25.853Z,83.80
2018-10-17T07:26:53.521Z,83.00
2018-10-17T07:29:21.470Z,82.10
2018-10-17T07:31:49.002Z,80.50
2018-10-17T07:34:17.174Z,80.00
2018-10-17T07:36:44.961Z,78.80
2018-10-17T07:39:13.206Z,78.40
2018-10-17T07:41:53.818Z,77.50
2018-10-17T07:47:11.027Z,76.70
2018-10-17T07:49:39.658Z,76.20
2018-10-17T07:52:08.054Z,75.60
2018-10-17T07:54:36.150Z,75.20
2018-10-17T07:57:05.091Z,74.70
2018-10-17T07:59:33.342Z,74.70
2018-10-17T08:02:01.691Z,73.80
2018-10-17T08:04:30.154Z,73.80
2018-10-17T08:06:58.645Z,73.50
2018-10-17T08:09:26.837Z,73.70
2018-10-17T08:11:54.874Z,73.10
2018-10-17T08:14:23.045Z,72.30
2018-10-17T08:16:51.455Z,71.40
2018-10-17T08:19:19.835Z,70.60
2018-10-17T08:21:48.047Z,70.70
2018-10-17T08:24:18.330Z,69.70
2018-10-17T08:26:46.451Z,69.60
2018-10-17T08:29:15.161Z,67.80
2018-10-17T08:31:43.578Z,67.40
2018-10-17T08:34:11.690Z,66.90
2018-10-17T08:36:40.269Z,66.40
2018-10-17T08:39:09.572Z,67.10
2018-10-17T08:41:37.650Z,67.60
2018-10-17T08:44:05.868Z,67.50
2018-10-17T08:46:34.311Z,66.10
2018-10-17T08:49:02.891Z,65.90
2018-10-17T08:51:31.371Z,65.00
2018-10-17T08:53:59.911Z,64.90
2018-10-17T08:56:28.468Z,65.10
2018-10-17T08:58:56.911Z,64.60
2018-10-17T09:01:25.654Z,64.70
2018-10-17T09:03:54.646Z,65.00
2018-10-17T09:06:25.421Z,63.90
2018-10-17T09:08:53.593Z,64.20
2018-10-17T09:11:22.148Z,64.20
2018-10-17T09:13:50.887Z,64.00
2018-10-17T09:16:21.659Z,64.60
2018-10-17T09:18:50.421Z,63.90
2018-10-17T09:21:18.994Z,63.80
2018-10-17T09:23:47.630Z,63.70
2018-10-17T09:26:15.576Z,63.00
2018-10-17T09:28:43.682Z,63.80
2018-10-17T09:31:11.818Z,63.30
2018-10-17T09:33:39.867Z,62.60
2018-10-17T09:36:07.904Z,62.40
2018-10-17T09:38:36.077Z,63.50
2018-10-17T09:41:04.205Z,63.20
2018-10-17T09:43:32.424Z,63.60
2018-10-17T09:46:00.479Z,63.20
2018-10-17T09:48:28.386Z,62.60
2018-10-17T09:50:56.343Z,63.10
2018-10-17T09:53:24.404Z,63.00
2018-10-17T09:55:52.385Z,63.10
2018-10-17T09:58:20.659Z,62.50
2018-10-17T10:00:54.164Z,61.60
2018-10-17T10:03:22.179Z,61.50
2018-10-17T10:05:57.726Z,62.60
2018-10-17T10:08:26.713Z,62.00
2018-10-17T10:10:54.619Z,60.90
2018-10-17T10:13:22.576Z,61.40
2018-10-17T10:15:52.600Z,60.80
2018-10-17T10:18:20.882Z,60.40
2018-10-17T10:20:49.047Z,59.70
2018-10-17T10:23:17.325Z,59.50
2018-10-17T10:25:45.849Z,59.20
2018-10-17T10:28:14.117Z,58.20
2018-10-17T10:30:42.563Z,58.60
2018-10-17T10:33:16.862Z,59.60
2018-10-17T10:35:44.719Z,59.10
2018-10-17T10:38:21.759Z,58.50
2018-10-17T10:40:49.692Z,57.80
2018-10-17T10:43:17.773Z,57.70
2018-10-17T10:45:45.992Z,58.30
2018-10-17T10:48:14.047Z,58.10
2018-10-17T10:50:42.300Z,57.50
2018-10-17T10:53:10.651Z,56.80
2018-10-17T10:55:38.678Z,57.40
2018-10-17T10:58:06.633Z,57.50
2018-10-17T11:00:34.695Z,57.30
2018-10-17T11:03:02.809Z,57.60
2018-10-17T11:05:31.006Z,57.50
2018-10-17T11:07:58.741Z,57.10
2018-10-17T11:10:26.530Z,56.80
2018-10-17T11:12:54.562Z,56.60
2018-10-17T11:15:22.640Z,56.20
2018-10-17T11:17:50.704Z,57.20
2018-10-17T11:20:18.567Z,56.50
2018-10-17T11:22:46.571Z,57.10
2018-10-17T11:25:14.490Z,56.80
2018-10-17T11:27:42.366Z,58.50
2018-10-17T11:30:10.816Z,57.80
2018-10-17T11:32:39.083Z,57.10
2018-10-17T11:35:08.430Z,57.10
2018-10-17T11:37:36.412Z,55.90
2018-10-17T11:40:04.525Z,56.60
2018-10-17T11:42:32.709Z,57.30
2018-10-17T11:45:00.653Z,56.60
2018-10-17T11:47:28.704Z,56.60
2018-10-17T11:49:56.450Z,56.60
2018-10-17T11:52:24.600Z,56.30
2018-10-17T11:54:52.469Z,55.20
2018-10-17T11:57:20.394Z,56.10
2018-10-17T11:59:48.413Z,55.60
2018-10-17T12:05:12.079Z,55.20
2018-10-17T12:07:39.812Z,53.40
2018-10-17T12:10:07.766Z,53.20
2018-10-17T12:12:36.196Z,54.90
2018-10-17T12:15:06.189Z,53.80
2018-10-17T12:17:33.968Z,54.60
2018-10-17T12:20:01.806Z,54.60
2018-10-17T12:22:29.714Z,54.90
2018-10-17T12:24:57.568Z,55.20
2018-10-17T12:27:25.674Z,55.60
2018-10-17T12:29:53.640Z,56.60
2018-10-17T12:32:21.531Z,56.10
2018-10-17T12:34:49.226Z,55.80
2018-10-17T12:37:17.069Z,55.40
2018-10-17T12:39:45.167Z,55.20
2018-10-17T12:42:12.922Z,55.30
2018-10-17T12:44:40.852Z,55.70
2018-10-17T12:47:08.854Z,56.20
2018-10-17T12:49:36.705Z,55.60
2018-10-17T12:52:04.700Z,54.80
2018-10-17T12:54:32.687Z,54.20
2018-10-17T12:57:00.523Z,53.80
2018-10-17T12:59:28.429Z,54.50
2018-10-17T13:01:56.325Z,53.70
2018-10-17T13:04:24.231Z,53.40
2018-10-17T13:06:52.169Z,53.50
2018-10-17T13:09:20.207Z,53.90
2018-10-17T13:11:48.162Z,52.60
2018-10-17T13:14:15.951Z,51.40
2018-10-17T13:16:43.629Z,51.80
2018-10-17T13:19:11.429Z,52.20
2018-10-17T13:21:39.557Z,52.40
2018-10-17T13:24:07.288Z,52.90
2018-10-17T13:26:35.075Z,52.90
2018-10-17T13:29:02.914Z,52.30
2018-10-17T13:31:30.721Z,51.80
2018-10-17T13:33:58.482Z,52.40
2018-10-17T13:36:26.474Z,52.70
2018-10-17T13:38:54.309Z,53.00
2018-10-17T13:41:22.847Z,53.10
2018-10-17T13:43:50.790Z,53.70
2018-10-17T13:46:19.887Z,54.60
2018-10-17T13:48:48.070Z,54.50
2018-10-17T13:51:16.022Z,54.70
2018-10-17T13:53:44.180Z,54.10
2018-10-17T13:56:13.287Z,53.60
2018-10-17T13:58:41.642Z,54.60
2018-10-17T14:01:12.091Z,54.40
2018-10-17T14:03:40.527Z,54.50
2018-10-17T14:06:09.223Z,54.50
2018-10-17T14:08:37.052Z,54.20
2018-10-17T14:11:05.703Z,53.90
2018-10-17T14:13:33.691Z,54.20
2018-10-17T14:16:01.580Z,53.60
2018-10-17T14:18:29.574Z,53.80
2018-10-17T14:20:57.493Z,53.60
2018-10-17T14:23:25.439Z,53.90
2018-10-17T14:25:53.332Z,53.60
2018-10-17T14:28:21.249Z,53.20
2018-10-17T14:30:49.205Z,52.70
2018-10-17T14:33:17.189Z,52.00
2018-10-17T14:35:45.107Z,51.70
2018-10-17T14:38:13.187Z,51.50
2018-10-17T14:40:41.116Z,51.80
2018-10-17T14:43:08.829Z,52.40
2018-10-17T14:45:36.579Z,50.90
2018-10-17T14:48:04.711Z,52.60
2018-10-17T14:50:32.485Z,53.90
2018-10-17T14:53:00.250Z,54.50
2018-10-17T14:55:28.308Z,54.60
2018-10-17T14:57:56.194Z,55.00
2018-10-17T15:00:23.992Z,54.90
2018-10-17T15:02:52.018Z,55.10
2018-10-17T15:05:19.913Z,56.00
2018-10-17T15:07:47.617Z,55.90
2018-10-17T15:10:15.639Z,55.40
2018-10-17T15:12:43.490Z,56.00
2018-10-17T15:15:12.243Z,55.60
2018-10-17T15:17:40.115Z,56.40
2018-10-17T15:20:08.564Z,57.40
2018-10-17T15:22:36.761Z,57.50
2018-10-17T15:25:05.254Z,57.20
2018-10-17T15:27:33.232Z,57.60
2018-10-17T15:30:01.163Z,58.00
2018-10-17T15:32:29.063Z,58.10
2018-10-17T15:34:56.863Z,58.30
2018-10-17T15:37:24.768Z,58.80
2018-10-17T15:39:52.695Z,58.50
2018-10-17T15:42:20.802Z,58.80
2018-10-17T15:44:48.806Z,58.80
2018-10-17T15:47:16.697Z,59.40
2018-10-17T15:49:44.718Z,59.30
2018-10-17T15:52:12.571Z,60.10
2018-10-17T15:54:40.491Z,59.50
2018-10-17T15:57:08.960Z,59.60
2018-10-17T15:59:37.870Z,59.70
2018-10-17T16:02:05.744Z,59.60
2018-10-17T16:04:33.555Z,59.70
2018-10-17T16:07:01.484Z,59.80
2018-10-17T16:09:29.407Z,59.80
2018-10-17T16:11:57.321Z,59.90
2018-10-17T16:14:25.289Z,60.40
2018-10-17T16:16:53.172Z,60.40
2018-10-17T16:19:21.286Z,60.60
2018-10-17T16:21:49.185Z,60.50
2018-10-17T16:24:17.253Z,60.40
2018-10-17T16:26:45.033Z,60.70
2018-10-17T16:29:12.815Z,60.80
2018-10-17T16:31:40.818Z,60.90
2018-10-17T16:34:08.657Z,61.10
2018-10-17T16:36:36.514Z,61.10
2018-10-17T16:39:07.729Z,61.20
2018-10-17T16:41:35.875Z,61.80
2018-10-17T16:44:03.960Z,60.90
2018-10-17T16:46:32.031Z,61.00
2018-10-17T16:49:00.039Z,61.20
2018-10-17T16:51:28.040Z,61.30
2018-10-17T16:53:56.104Z,61.30
2018-10-17T16:56:24.099Z,61.10
2018-10-17T16:58:52.067Z,61.20
2018-10-17T17:01:20.080Z,61.40
2018-10-17T17:03:48.035Z,61.70
2018-10-17T17:06:16.068Z,61.60
2018-10-17T17:08:44.117Z,62.10
2018-10-17T17:11:11.977Z,62.10
2018-10-17T17:13:39.988Z,62.90
2018-10-17T17:16:08.010Z,63.60
2018-10-17T17:18:36.871Z,64.50
2018-10-17T17:21:04.928Z,64.90
2018-10-17T17:23:32.806Z,65.30
2018-10-17T17:26:00.662Z,65.80
2018-10-17T17:28:28.537Z,66.20
2018-10-17T17:30:56.476Z,66.50
2018-10-17T17:33:24.265Z,66.60
2018-10-17T17:35:52.139Z,67.00
2018-10-17T17:38:20.070Z,67.50
2018-10-17T17:40:48.001Z,67.80
2018-10-17T17:43:16.755Z,68.30
2018-10-17T17:45:45.144Z,68.60
2018-10-17T17:48:13.258Z,68.90
2018-10-17T17:50:41.270Z,69.30
2018-10-17T17:53:09.201Z,68.80
2018-10-17T17:55:37.352Z,69.30
2018-10-17T17:58:05.180Z,69.90
2018-10-17T18:00:32.982Z,70.20
2018-10-17T18:03:00.966Z,70.50
2018-10-17T18:05:28.803Z,71.10
2018-10-17T18:07:56.705Z,71.60
2018-10-17T18:10:24.691Z,71.90
2018-10-17T18:12:52.525Z,72.00
2018-10-17T18:15:20.358Z,72.00
2018-10-17T18:17:48.142Z,72.20
2018-10-17T18:20:22.899Z,72.20
2018-10-17T18:22:50.705Z,72.50
2018-10-17T18:25:18.477Z,72.50
2018-10-17T18:27:47.001Z,72.40
2018-10-17T18:30:14.802Z,72.30
2018-10-17T18:32:42.628Z,72.30
2018-10-17T18:35:10.482Z,72.40
2018-10-17T18:37:38.447Z,72.60
2018-10-17T18:40:06.516Z,72.80
2018-10-17T18:42:34.382Z,73.00
2018-10-17T18:45:02.463Z,73.10
2018-10-17T18:47:30.758Z,73.40
2018-10-17T18:49:58.845Z,73.50
2018-10-17T18:52:26.853Z,73.60
2018-10-17T18:54:55.254Z,74.30
2018-10-17T18:57:23.106Z,73.80
2018-10-17T18:59:51.320Z,74.10
2018-10-17T19:02:19.425Z,74.20
2018-10-17T19:04:47.795Z,74.80
2018-10-17T19:07:15.815Z,75.10
2018-10-17T19:09:43.653Z,75.30
2018-10-17T19:12:11.705Z,75.70
2018-10-17T19:14:39.482Z,76.10
2018-10-17T19:17:10.510Z,76.10
2018-10-17T19:19:41.679Z,76.50
2018-10-17T19:22:09.852Z,76.70
2018-10-17T19:24:40.620Z,76.60
2018-10-17T19:27:09.506Z,76.40
2018-10-17T19:29:38.001Z,76.50
2018-10-17T19:32:07.886Z,76.40
2018-10-17T19:34:38.982Z,76.60
2018-10-17T19:37:10.249Z,76.40
2018-10-17T19:42:12.742Z,76.90
2018-10-17T19:44:41.311Z,77.00
2018-10-17T19:47:10.874Z,77.40
2018-10-17T19:49:39.638Z,77.60
2018-10-17T19:52:09.984Z,77.70
2018-10-17T19:54:38.438Z,77.70
2018-10-17T19:57:07.756Z,77.80
2018-10-17T19:59:37.294Z,78.10
2018-10-17T20:02:10.724Z,78.10
2018-10-17T20:04:40.763Z,78.10
2018-10-17T20:07:15.598Z,78.40
2018-10-17T20:09:45.365Z,78.70
2018-10-17T20:12:13.520Z,78.90
2018-10-17T20:14:42.060Z,79.10
2018-10-17T20:17:13.169Z,79.30
2018-10-17T20:19:41.548Z,79.30
2018-10-17T20:22:10.689Z,79.20
2018-10-17T20:24:41.066Z,79.20
2018-10-17T20:27:12.364Z,79.40
2018-10-17T20:29:44.736Z,79.40
2018-10-17T20:32:12.580Z,80.00
2018-10-17T20:34:40.687Z,79.70
2018-10-17T20:37:08.825Z,79.80
2018-10-17T20:39:37.509Z,79.90
2018-10-17T20:42:07.397Z,80.10
2018-10-17T20:44:43.441Z,81.00
2018-10-17T20:47:14.051Z,80.20
2018-10-17T20:49:42.451Z,80.50
2018-10-17T20:52:10.855Z,80.80
2018-10-17T20:54:40.702Z,81.10
2018-10-17T20:57:09.167Z,81.30
2018-10-17T20:59:37.241Z,81.20
2018-10-17T21:02:06.474Z,81.10
2018-10-17T21:04:36.623Z,81.20
2018-10-17T21:07:06.960Z,81.10
2018-10-17T21:09:36.136Z,81.20
2018-10-17T21:12:04.334Z,81.20
2018-10-17T21:14:36.149Z,81.20
2018-10-17T21:17:04.456Z,81.40
2018-10-17T21:19:32.713Z,81.60
2018-10-17T21:22:06.883Z,81.50
2018-10-17T21:27:20.506Z,81.60
2018-10-17T21:29:49.152Z,81.70
2018-10-17T21:32:26.534Z,81.60
2018-10-17T21:34:56.534Z,81.50
2018-10-17T21:37:26.379Z,81.50
2018-10-17T21:39:54.907Z,81.90
2018-10-17T21:42:24.594Z,82.00
2018-10-17T21:44:52.916Z,82.30
2018-10-17T21:47:21.571Z,82.40
2018-10-17T21:49:50.663Z,82.40
2018-10-17T21:52:20.819Z,82.30
2018-10-17T21:54:52.882Z,82.40
2018-10-17T21:57:21.277Z,82.70
2018-10-17T21:59:50.715Z,82.80
2018-10-17T22:02:20.791Z,82.80
2018-10-17T22:04:48.877Z,82.90
2018-10-17T22:07:17.042Z,82.80
2018-10-17T22:09:45.381Z,83.70
2018-10-17T22:12:13.534Z,82.90
2018-10-17T22:14:41.667Z,82.80
2018-10-17T22:17:10.653Z,82.80
2018-10-17T22:19:52.440Z,83.00
2018-10-17T22:22:20.336Z,83.00
2018-10-17T22:24:48.489Z,83.00
2018-10-17T22:27:18.338Z,83.20
2018-10-17T22:29:46.466Z,83.30
2018-10-17T22:32:14.635Z,83.20
2018-10-17T22:34:42.654Z,83.30
2018-10-17T22:37:11.949Z,83.20
2018-10-17T22:39:40.136Z,83.50
2018-10-17T22:42:08.134Z,83.80
2018-10-17T22:44:36.212Z,83.80
2018-10-17T22:47:06.118Z,84.10
2018-10-17T22:49:38.740Z,84.10
2018-10-17T22:52:07.177Z,84.30
2018-10-17T22:54:35.070Z,84.60
2018-10-17T22:57:02.951Z,84.80
2018-10-17T22:59:31.117Z,84.90
2018-10-17T23:02:00.124Z,84.80
2018-10-17T23:04:28.205Z,85.00
2018-10-17T23:06:56.271Z,85.00
2018-10-17T23:09:24.323Z,85.10
2018-10-17T23:11:52.833Z,85.20
2018-10-17T23:14:20.872Z,85.10
2018-10-17T23:16:50.409Z,85.20
2018-10-17T23:19:20.562Z,85.30
2018-10-17T23:21:48.560Z,85.40
2018-10-17T23:24:16.613Z,85.40
2018-10-17T23:26:45.825Z,85.30
2018-10-17T23:29:13.758Z,85.30
2018-10-17T23:31:41.894Z,85.60
2018-10-17T23:34:10.002Z,85.70
2018-10-17T23:36:38.046Z,85.70
2018-10-17T23:39:08.441Z,85.80
2018-10-17T23:41:39.378Z,86.00
2018-10-17T23:44:07.562Z,86.30
2018-10-17T23:46:41.795Z,86.40
2018-10-17T23:49:10.025Z,86.50
2018-10-17T23:51:38.235Z,86.50
2018-10-17T23:54:06.593Z,86.50
2018-10-17T23:56:34.686Z,86.50
2018-10-17T23:59:02.869Z,86.10
